createdAt,value
2018-05-31T00:00:49.629Z,10.55
2018-05-31T00:03:17.244Z,11.70
2018-05-31T00:05:44.887Z,11.45
2018-05-31T00:08:12.497Z,12.52
2018-05-31T00:10:40.095Z,14.15
2018-05-31T00:13:07.831Z,12.57
2018-05-31T00:15:35.414Z,13.48
2018-05-31T00:18:03.796Z,13.57
2018-05-31T00:20:31.408Z,14.85
2018-05-31T00:22:59.030Z,15.10
2018-05-31T00:25:26.619Z,15.60
2018-05-31T00:27:54.219Z,17.85
2018-05-31T00:30:21.820Z,16.35
2018-05-31T00:32:50.171Z,19.65
2018-05-31T00:35:17.784Z,19.73
2018-05-31T00:37:45.388Z,18.77
2018-05-31T00:40:12.992Z,19.52
2018-05-31T00:42:40.608Z,16.95
2018-05-31T00:45:08.233Z,19.80
2018-05-31T00:47:35.851Z,19.23
2018-05-31T00:50:04.635Z,20.17
2018-05-31T00:52:32.221Z,19.00
2018-05-31T00:54:59.810Z,18.65
2018-05-31T00:57:27.411Z,20.42
2018-05-31T00:59:55.031Z,20.33
2018-05-31T01:02:22.660Z,19.60
2018-05-31T01:04:50.287Z,19.02
2018-05-31T01:07:17.889Z,19.67
2018-05-31T01:09:45.492Z,19.45
2018-05-31T01:12:13.114Z,19.73
2018-05-31T01:14:40.708Z,18.60
2018-05-31T01:17:08.290Z,19.27
2018-05-31T01:19:35.875Z,21.08
2018-05-31T01:22:04.270Z,19.37
2018-05-31T01:24:32.662Z,17.80
2018-05-31T01:27:00.275Z,18.48
2018-05-31T01:29:28.091Z,16.08
2018-05-31T01:31:55.739Z,15.48
2018-05-31T01:34:23.290Z,18.60
2018-05-31T01:36:50.883Z,16.90
2018-05-31T01:39:19.234Z,17.20
2018-05-31T01:41:46.831Z,18.52
2018-05-31T01:44:14.457Z,16.80
2018-05-31T01:46:42.073Z,17.27
2018-05-31T01:49:09.679Z,20.55
2018-05-31T01:51:37.271Z,19.27
2018-05-31T01:54:04.890Z,22.40
2018-05-31T01:56:32.529Z,21.12
2018-05-31T01:59:00.132Z,21.92
2018-05-31T02:01:27.731Z,19.50
2018-05-31T02:03:55.342Z,21.85
2018-05-31T02:06:22.959Z,21.35
2018-05-31T02:08:50.605Z,22.13
2018-05-31T02:11:18.217Z,22.90
2018-05-31T02:13:46.278Z,20.00
2018-05-31T02:16:13.894Z,18.77
2018-05-31T02:18:41.506Z,20.83
2018-05-31T02:21:09.118Z,21.93
2018-05-31T02:23:37.472Z,17.43
2018-05-31T02:26:05.856Z,18.90
2018-05-31T02:28:33.477Z,17.50
2018-05-31T02:31:01.170Z,18.23
2018-05-31T02:33:28.819Z,17.50
2018-05-31T02:35:56.444Z,15.23
2018-05-31T02:38:24.041Z,16.50
2018-05-31T02:40:51.637Z,15.98
2018-05-31T02:43:19.273Z,17.70
2018-05-31T02:45:46.889Z,18.08
2018-05-31T02:48:14.484Z,15.97
2018-05-31T02:50:42.097Z,17.80
2018-05-31T02:53:09.723Z,17.30
2018-05-31T02:55:37.318Z,20.10
2018-05-31T02:58:04.926Z,20.60
2018-05-31T03:00:32.510Z,20.70
2018-05-31T03:03:00.131Z,20.77
2018-05-31T03:05:27.769Z,19.10
2018-05-31T03:07:55.384Z,17.90
2018-05-31T03:10:22.987Z,18.60
2018-05-31T03:12:50.569Z,19.60
2018-05-31T03:15:18.193Z,18.03
2018-05-31T03:17:46.559Z,19.43
2018-05-31T03:20:14.161Z,17.87
2018-05-31T03:22:41.750Z,15.73
2018-05-31T03:25:09.343Z,17.03
2018-05-31T03:27:36.960Z,18.23
2018-05-31T03:30:04.562Z,18.50
2018-05-31T03:32:32.184Z,15.90
2018-05-31T03:34:59.910Z,15.75
2018-05-31T03:37:28.288Z,15.90
2018-05-31T03:39:55.879Z,14.13
2018-05-31T03:42:23.488Z,15.27
2018-05-31T03:44:51.105Z,14.87
2018-05-31T03:47:18.719Z,16.30
2018-05-31T03:49:46.337Z,15.73
2018-05-31T03:52:13.937Z,15.87
2018-05-31T03:54:41.556Z,14.60
2018-05-31T03:57:09.205Z,15.23
2018-05-31T03:59:37.562Z,16.63
2018-05-31T04:02:05.170Z,15.90
2018-05-31T04:04:32.904Z,16.23
2018-05-31T04:07:01.273Z,15.63
2018-05-31T04:09:28.883Z,13.57
2018-05-31T04:11:56.475Z,12.93
2018-05-31T04:14:24.080Z,12.27
2018-05-31T04:16:51.708Z,12.60
2018-05-31T04:19:19.312Z,13.40
2018-05-31T04:21:46.956Z,12.47
2018-05-31T04:24:14.551Z,13.15
2018-05-31T04:26:42.164Z,12.50
2018-05-31T04:29:09.820Z,13.65
2018-05-31T04:31:37.439Z,11.93
2018-05-31T04:34:05.068Z,11.43
2018-05-31T04:36:32.689Z,15.60
2018-05-31T04:39:00.336Z,14.60
2018-05-31T04:41:27.953Z,12.88
2018-05-31T04:43:55.552Z,12.40
2018-05-31T04:46:23.134Z,14.80
2018-05-31T04:48:50.764Z,14.43
2018-05-31T04:51:18.347Z,14.10
2018-05-31T04:53:45.944Z,13.73
2018-05-31T04:56:13.577Z,13.52
2018-05-31T04:58:41.176Z,15.65
2018-05-31T05:01:09.566Z,16.67
2018-05-31T05:03:37.938Z,17.85
2018-05-31T05:06:06.318Z,18.98
2018-05-31T05:08:33.921Z,17.08
2018-05-31T05:11:01.544Z,19.05
2018-05-31T05:13:29.946Z,20.03
2018-05-31T05:15:57.547Z,25.90
2018-05-31T05:18:25.165Z,22.90
2018-05-31T05:20:53.552Z,20.75
2018-05-31T05:23:21.129Z,24.48
2018-05-31T05:25:48.720Z,22.98
2018-05-31T05:28:16.354Z,25.05
2018-05-31T05:30:44.113Z,23.87
2018-05-31T05:33:11.766Z,25.55
2018-05-31T05:35:40.100Z,22.40
2018-05-31T05:38:07.683Z,23.90
2018-05-31T05:40:35.309Z,25.05
2018-05-31T05:43:02.924Z,26.67
2018-05-31T05:45:30.510Z,28.30
2018-05-31T05:47:58.141Z,26.48
2018-05-31T05:50:25.739Z,25.08
2018-05-31T05:52:53.342Z,25.73
2018-05-31T05:55:21.730Z,24.15
2018-05-31T05:57:49.335Z,24.08
2018-05-31T06:00:16.930Z,29.27
2018-05-31T06:02:44.538Z,28.67
2018-05-31T06:05:12.117Z,25.52
2018-05-31T06:07:39.735Z,22.52
2018-05-31T06:10:07.742Z,23.92
2018-05-31T06:12:35.296Z,21.35
2018-05-31T06:15:02.908Z,21.77
2018-05-31T06:17:30.507Z,24.87
2018-05-31T06:19:58.077Z,19.12
2018-05-31T06:22:25.694Z,21.48
2018-05-31T06:24:53.282Z,19.12
2018-05-31T06:27:21.648Z,18.92
2018-05-31T06:29:49.243Z,19.17
2018-05-31T06:32:16.885Z,17.00
2018-05-31T06:34:45.263Z,18.98
2018-05-31T06:37:12.876Z,18.37
2018-05-31T06:39:40.481Z,15.35
2018-05-31T06:42:08.086Z,18.83
2018-05-31T06:44:35.680Z,18.75
2018-05-31T06:47:03.265Z,16.80
2018-05-31T06:49:30.841Z,20.23
2018-05-31T06:51:59.201Z,19.52
2018-05-31T06:54:26.817Z,18.42
2018-05-31T06:56:54.410Z,17.52
2018-05-31T06:59:22.015Z,19.65
2018-05-31T07:01:50.511Z,18.65
2018-05-31T07:04:18.083Z,16.92
2018-05-31T07:06:45.684Z,14.52
2018-05-31T07:09:13.309Z,12.98
2018-05-31T07:11:40.935Z,12.32
2018-05-31T07:14:08.521Z,12.65
2018-05-31T07:16:36.110Z,11.75
2018-05-31T07:19:03.835Z,11.02
2018-05-31T07:21:32.189Z,10.70
2018-05-31T07:23:59.780Z,9.75
2018-05-31T07:26:27.396Z,9.38
2018-05-31T07:28:54.989Z,9.23
2018-05-31T07:31:23.352Z,9.70
2018-05-31T07:33:50.925Z,10.63
2018-05-31T07:36:18.569Z,10.73
2018-05-31T07:38:46.159Z,10.65
2018-05-31T07:41:13.751Z,11.20
2018-05-31T07:43:41.344Z,11.02
2018-05-31T07:46:08.917Z,10.98
2018-05-31T07:48:36.676Z,10.52
2018-05-31T07:51:04.265Z,9.77
2018-05-31T07:53:31.856Z,8.82
2018-05-31T07:55:59.421Z,8.95
2018-05-31T07:58:27.065Z,8.40
2018-05-31T08:00:55.417Z,7.50
2018-05-31T08:03:23.013Z,8.38
2018-05-31T08:05:50.628Z,12.35
2018-05-31T08:08:18.207Z,9.43
2018-05-31T08:10:45.814Z,11.85
2018-05-31T08:13:13.418Z,10.77
2018-05-31T08:15:41.100Z,10.93
2018-05-31T08:18:09.644Z,10.50
2018-05-31T08:20:37.256Z,9.25
2018-05-31T08:23:06.498Z,10.23
2018-05-31T08:25:34.363Z,10.63
2018-05-31T08:28:03.517Z,11.32
2018-05-31T08:30:31.428Z,8.20
2018-05-31T08:32:59.014Z,8.63
2018-05-31T08:35:26.597Z,8.68
2018-05-31T08:37:54.327Z,8.80
2018-05-31T08:40:21.905Z,7.47
2018-05-31T08:42:49.488Z,7.25
2018-05-31T08:45:17.856Z,6.62
2018-05-31T08:47:46.086Z,8.45
2018-05-31T08:50:13.649Z,8.48
2018-05-31T08:52:41.245Z,9.00
2018-05-31T08:55:08.838Z,8.65
2018-05-31T08:57:37.170Z,7.93
2018-05-31T09:00:04.755Z,8.40
2018-05-31T09:02:32.354Z,8.82
2018-05-31T09:04:59.947Z,8.10
2018-05-31T09:07:27.577Z,7.03
2018-05-31T09:09:55.172Z,6.90
2018-05-31T09:12:22.760Z,6.30
2018-05-31T09:14:50.353Z,6.32
2018-05-31T09:17:18.081Z,6.68
2018-05-31T09:19:45.691Z,6.82
2018-05-31T09:22:13.258Z,7.00
2018-05-31T09:24:40.850Z,7.07
2018-05-31T09:27:08.447Z,6.87
2018-05-31T09:29:36.819Z,6.60
2018-05-31T09:32:05.305Z,6.37
2018-05-31T09:34:32.922Z,6.87
2018-05-31T09:37:00.511Z,6.87
2018-05-31T09:39:29.204Z,6.93
2018-05-31T09:41:57.330Z,7.22
2018-05-31T09:44:24.909Z,6.37
2018-05-31T09:46:52.478Z,6.93
2018-05-31T09:49:20.073Z,7.07
2018-05-31T09:51:47.663Z,7.00
2018-05-31T09:54:15.288Z,6.90
2018-05-31T09:56:42.887Z,6.93
2018-05-31T09:59:10.480Z,6.40
2018-05-31T10:01:38.069Z,6.85
2018-05-31T10:04:05.677Z,6.47
2018-05-31T10:06:33.267Z,6.70
2018-05-31T10:09:02.054Z,6.78
2018-05-31T10:11:29.626Z,6.53
2018-05-31T10:13:57.233Z,6.95
2018-05-31T10:16:24.815Z,6.20
2018-05-31T10:18:52.401Z,7.00
2018-05-31T10:21:20.155Z,6.25
2018-05-31T10:23:47.740Z,6.70
2018-05-31T10:26:15.325Z,6.78
2018-05-31T10:28:42.942Z,6.60
2018-05-31T10:31:10.529Z,6.25
2018-05-31T10:33:38.187Z,6.05
2018-05-31T10:36:05.774Z,6.43
2018-05-31T10:38:33.466Z,7.93
2018-05-31T10:41:01.048Z,7.00
2018-05-31T10:43:28.628Z,6.70
2018-05-31T10:45:56.223Z,6.40
2018-05-31T10:48:23.805Z,6.60
2018-05-31T10:50:52.158Z,6.68
2018-05-31T10:53:19.753Z,6.82
2018-05-31T10:55:47.333Z,6.40
2018-05-31T10:58:14.958Z,6.50
2018-05-31T11:00:43.299Z,7.30
2018-05-31T11:03:10.898Z,6.80
2018-05-31T11:05:38.525Z,6.97
2018-05-31T11:08:06.304Z,7.95
2018-05-31T11:10:33.870Z,8.65
